sensor_id;sensor_type;location;lat;lon;timestamp;temperature;humidity
7254;DHT22;4060;49.186;9.226;2022-09-04T00:00:06;24.90;55.10
7254;DHT22;4060;49.186;9.226;2022-09-04T00:02:51;24.80;55.10
7254;DHT22;4060;49.186;9.226;2022-09-04T00:05:30;24.80;55.10
7254;DHT22;4060;49.186;9.226;2022-09-04T00:08:17;24.80;55.10
7254;DHT22;4060;49.186;9.226;2022-09-04T00:10:55;24.80;55.20
7254;DHT22;4060;49.186;9.226;2022-09-04T00:13:36;24.80;55.10
7254;DHT22;4060;49.186;9.226;2022-09-04T00:16:11;24.80;55.20
7254;DHT22;4060;49.186;9.226;2022-09-04T00:18:49;24.70;55.10
7254;DHT22;4060;49.186;9.226;2022-09-04T00:21:26;24.70;55.10
7254;DHT22;4060;49.186;9.226;2022-09-04T00:24:01;24.70;55.10
7254;DHT22;4060;49.186;9.226;2022-09-04T00:26:39;24.70;55.10
7254;DHT22;4060;49.186;9.226;2022-09-04T00:29:20;24.70;55.20
7254;DHT22;4060;49.186;9.226;2022-09-04T00:31:56;24.60;55.20
7254;DHT22;4060;49.186;9.226;2022-09-04T00:34:53;24.70;55.30
7254;DHT22;4060;49.186;9.226;2022-09-04T00:37:30;24.60;55.20
7254;DHT22;4060;49.186;9.226;2022-09-04T00:40:03;24.60;55.20
7254;DHT22;4060;49.186;9.226;2022-09-04T00:42:53;24.60;55.20
7254;DHT22;4060;49.186;9.226;2022-09-04T00:45:43;24.60;55.40
7254;DHT22;4060;49.186;9.226;2022-09-04T00:48:32;24.60;55.30
7254;DHT22;4060;49.186;9.226;2022-09-04T00:51:17;24.50;55.30
7254;DHT22;4060;49.186;9.226;2022-09-04T00:54:09;24.50;55.30
7254;DHT22;4060;49.186;9.226;2022-09-04T01:00:08;24.50;55.40
7254;DHT22;4060;49.186;9.226;2022-09-04T01:06:10;24.40;55.40
7254;DHT22;4060;49.186;9.226;2022-09-04T01:11:40;24.40;55.40
7254;DHT22;4060;49.186;9.226;2022-09-04T01:14:17;24.40;55.50
7254;DHT22;4060;49.186;9.226;2022-09-04T01:16:56;24.40;55.50
7254;DHT22;4060;49.186;9.226;2022-09-04T01:19:41;24.40;55.60
7254;DHT22;4060;49.186;9.226;2022-09-04T01:28:34;24.40;55.60
7254;DHT22;4060;49.186;9.226;2022-09-04T01:31:12;24.30;55.50
7254;DHT22;4060;49.186;9.226;2022-09-04T01:33:54;24.30;55.60
7254;DHT22;4060;49.186;9.226;2022-09-04T01:36:37;24.30;55.60
7254;DHT22;4060;49.186;9.226;2022-09-04T01:39:10;24.20;55.50
7254;DHT22;4060;49.186;9.226;2022-09-04T01:41:43;24.30;55.50
7254;DHT22;4060;49.186;9.226;2022-09-04T01:44:16;24.20;55.50
7254;DHT22;4060;49.186;9.226;2022-09-04T01:46:53;24.20;55.50
7254;DHT22;4060;49.186;9.226;2022-09-04T01:49:35;24.20;55.50
7254;DHT22;4060;49.186;9.226;2022-09-04T01:52:32;24.20;55.60
7254;DHT22;4060;49.186;9.226;2022-09-04T01:55:15;24.20;55.60
7254;DHT22;4060;49.186;9.226;2022-09-04T01:58:07;24.20;55.50
7254;DHT22;4060;49.186;9.226;2022-09-04T02:00:50;24.20;55.60
7254;DHT22;4060;49.186;9.226;2022-09-04T02:03:25;24.10;55.50
7254;DHT22;4060;49.186;9.226;2022-09-04T02:06:03;24.10;55.50
7254;DHT22;4060;49.186;9.226;2022-09-04T02:08:58;24.10;55.50
7254;DHT22;4060;49.186;9.226;2022-09-04T02:11:30;24.10;55.50
7254;DHT22;4060;49.186;9.226;2022-09-04T02:14:15;24.10;55.50
7254;DHT22;4060;49.186;9.226;2022-09-04T02:17:00;24.10;55.60
7254;DHT22;4060;49.186;9.226;2022-09-04T02:19:43;24.10;55.50
7254;DHT22;4060;49.186;9.226;2022-09-04T02:22:25;24.00;55.50
7254;DHT22;4060;49.186;9.226;2022-09-04T02:25:01;24.00;55.50
7254;DHT22;4060;49.186;9.226;2022-09-04T02:27:42;24.00;55.40
7254;DHT22;4060;49.186;9.226;2022-09-04T02:30:18;24.00;55.40
7254;DHT22;4060;49.186;9.226;2022-09-04T02:32:58;24.00;55.40
7254;DHT22;4060;49.186;9.226;2022-09-04T02:35:38;24.00;55.50
7254;DHT22;4060;49.186;9.226;2022-09-04T02:38:20;24.00;55.50
7254;DHT22;4060;49.186;9.226;2022-09-04T02:40:58;23.90;55.40
7254;DHT22;4060;49.186;9.226;2022-09-04T02:43:40;23.90;55.40
7254;DHT22;4060;49.186;9.226;2022-09-04T02:46:17;23.90;55.40
7254;DHT22;4060;49.186;9.226;2022-09-04T02:49:05;23.90;55.40
7254;DHT22;4060;49.186;9.226;2022-09-04T02:51:54;23.90;55.40
7254;DHT22;4060;49.186;9.226;2022-09-04T02:54:42;23.90;55.50
7254;DHT22;4060;49.186;9.226;2022-09-04T02:57:24;23.80;55.40
7254;DHT22;4060;49.186;9.226;2022-09-04T03:00:03;23.80;55.40
7254;DHT22;4060;49.186;9.226;2022-09-04T03:02:40;23.80;55.40
7254;DHT22;4060;49.186;9.226;2022-09-04T03:05:17;23.80;55.40
7254;DHT22;4060;49.186;9.226;2022-09-04T03:07:55;23.80;55.40
7254;DHT22;4060;49.186;9.226;2022-09-04T03:10:30;23.80;55.40
7254;DHT22;4060;49.186;9.226;2022-09-04T03:13:04;23.70;55.40
7254;DHT22;4060;49.186;9.226;2022-09-04T03:15:39;23.70;55.40
7254;DHT22;4060;49.186;9.226;2022-09-04T03:18:18;23.70;55.50
7254;DHT22;4060;49.186;9.226;2022-09-04T03:20:53;23.70;55.50
7254;DHT22;4060;49.186;9.226;2022-09-04T03:23:31;23.70;55.50
7254;DHT22;4060;49.186;9.226;2022-09-04T03:26:17;23.70;55.60
7254;DHT22;4060;49.186;9.226;2022-09-04T03:29:12;23.70;55.60
7254;DHT22;4060;49.186;9.226;2022-09-04T03:31:53;23.70;55.70
7254;DHT22;4060;49.186;9.226;2022-09-04T03:34:36;23.60;55.60
7254;DHT22;4060;49.186;9.226;2022-09-04T03:37:31;23.60;55.70
7254;DHT22;4060;49.186;9.226;2022-09-04T03:40:22;23.60;55.80
7254;DHT22;4060;49.186;9.226;2022-09-04T03:43:04;23.60;55.80
7254;DHT22;4060;49.186;9.226;2022-09-04T03:45:45;23.60;55.80
7254;DHT22;4060;49.186;9.226;2022-09-04T03:48:30;23.60;55.80
7254;DHT22;4060;49.186;9.226;2022-09-04T03:51:12;23.60;55.80
7254;DHT22;4060;49.186;9.226;2022-09-04T03:53:51;23.50;55.80
7254;DHT22;4060;49.186;9.226;2022-09-04T03:59:36;23.50;55.90
7254;DHT22;4060;49.186;9.226;2022-09-04T04:02:17;23.50;56.00
7254;DHT22;4060;49.186;9.226;2022-09-04T04:08:02;23.50;56.10
7254;DHT22;4060;49.186;9.226;2022-09-04T04:10:50;23.50;56.20
7254;DHT22;4060;49.186;9.226;2022-09-04T04:13:39;23.40;56.10
7254;DHT22;4060;49.186;9.226;2022-09-04T04:16:23;23.40;56.10
7254;DHT22;4060;49.186;9.226;2022-09-04T04:19:20;23.40;56.20
7254;DHT22;4060;49.186;9.226;2022-09-04T04:22:06;23.40;56.20
7254;DHT22;4060;49.186;9.226;2022-09-04T04:24:57;23.40;56.20
7254;DHT22;4060;49.186;9.226;2022-09-04T04:27:47;23.40;56.20
7254;DHT22;4060;49.186;9.226;2022-09-04T04:30:19;23.40;56.20
7254;DHT22;4060;49.186;9.226;2022-09-04T04:33:10;23.30;56.20
7254;DHT22;4060;49.186;9.226;2022-09-04T04:35:46;23.30;56.30
7254;DHT22;4060;49.186;9.226;2022-09-04T04:41:31;23.30;56.30
7254;DHT22;4060;49.186;9.226;2022-09-04T04:44:46;23.30;56.30
7254;DHT22;4060;49.186;9.226;2022-09-04T04:47:58;23.30;56.30
7254;DHT22;4060;49.186;9.226;2022-09-04T04:50:40;23.30;56.30
7254;DHT22;4060;49.186;9.226;2022-09-04T04:53:21;23.20;56.20
7254;DHT22;4060;49.186;9.226;2022-09-04T04:55:57;23.20;56.30
7254;DHT22;4060;49.186;9.226;2022-09-04T04:58:47;23.20;56.30
7254;DHT22;4060;49.186;9.226;2022-09-04T05:01:38;23.20;56.40
7254;DHT22;4060;49.186;9.226;2022-09-04T05:04:16;23.20;56.50
7254;DHT22;4060;49.186;9.226;2022-09-04T05:06:54;23.20;56.40
7254;DHT22;4060;49.186;9.226;2022-09-04T05:09:35;23.20;56.40
7254;DHT22;4060;49.186;9.226;2022-09-04T05:12:12;23.20;56.50
7254;DHT22;4060;49.186;9.226;2022-09-04T05:14:51;23.20;56.40
7254;DHT22;4060;49.186;9.226;2022-09-04T05:17:33;23.20;56.50
7254;DHT22;4060;49.186;9.226;2022-09-04T05:20:23;23.20;56.50
7254;DHT22;4060;49.186;9.226;2022-09-04T05:23:02;23.10;56.40
7254;DHT22;4060;49.186;9.226;2022-09-04T05:25:39;23.10;56.40
7254;DHT22;4060;49.186;9.226;2022-09-04T05:28:24;23.10;56.40
7254;DHT22;4060;49.186;9.226;2022-09-04T05:31:10;23.10;56.50
7254;DHT22;4060;49.186;9.226;2022-09-04T05:33:52;23.10;56.60
7254;DHT22;4060;49.186;9.226;2022-09-04T05:36:34;23.10;56.60
7254;DHT22;4060;49.186;9.226;2022-09-04T05:39:11;23.10;56.60
7254;DHT22;4060;49.186;9.226;2022-09-04T05:41:55;23.10;56.60
7254;DHT22;4060;49.186;9.226;2022-09-04T05:44:41;23.10;56.70
7254;DHT22;4060;49.186;9.226;2022-09-04T05:47:22;23.10;56.70
7254;DHT22;4060;49.186;9.226;2022-09-04T05:50:08;23.00;56.60
7254;DHT22;4060;49.186;9.226;2022-09-04T05:52:54;23.00;57.20
7254;DHT22;4060;49.186;9.226;2022-09-04T05:55:54;23.00;56.80
7254;DHT22;4060;49.186;9.226;2022-09-04T05:58:44;23.00;56.80
7254;DHT22;4060;49.186;9.226;2022-09-04T06:01:31;23.00;56.90
7254;DHT22;4060;49.186;9.226;2022-09-04T06:07:19;23.00;57.10
7254;DHT22;4060;49.186;9.226;2022-09-04T06:09:58;23.00;57.10
7254;DHT22;4060;49.186;9.226;2022-09-04T06:15:43;23.00;57.20
7254;DHT22;4060;49.186;9.226;2022-09-04T06:24:47;22.90;57.30
7254;DHT22;4060;49.186;9.226;2022-09-04T06:27:46;23.00;57.40
7254;DHT22;4060;49.186;9.226;2022-09-04T06:30:22;22.90;57.30
7254;DHT22;4060;49.186;9.226;2022-09-04T06:33:06;22.90;57.30
7254;DHT22;4060;49.186;9.226;2022-09-04T06:36:01;22.90;57.40
7254;DHT22;4060;49.186;9.226;2022-09-04T06:39:04;22.90;57.50
7254;DHT22;4060;49.186;9.226;2022-09-04T06:41:59;22.90;57.60
7254;DHT22;4060;49.186;9.226;2022-09-04T06:44:47;22.90;58.00
7254;DHT22;4060;49.186;9.226;2022-09-04T06:47:24;22.90;57.60
7254;DHT22;4060;49.186;9.226;2022-09-04T06:50:15;22.90;57.60
7254;DHT22;4060;49.186;9.226;2022-09-04T06:52:58;22.90;57.70
7254;DHT22;4060;49.186;9.226;2022-09-04T06:55:35;22.90;57.70
7254;DHT22;4060;49.186;9.226;2022-09-04T06:58:43;22.90;57.70
7254;DHT22;4060;49.186;9.226;2022-09-04T07:01:17;22.90;57.80
7254;DHT22;4060;49.186;9.226;2022-09-04T07:04:00;22.90;57.80
7254;DHT22;4060;49.186;9.226;2022-09-04T07:06:47;22.90;57.80
7254;DHT22;4060;49.186;9.226;2022-09-04T07:09:20;22.90;57.90
7254;DHT22;4060;49.186;9.226;2022-09-04T07:12:26;22.90;57.80
7254;DHT22;4060;49.186;9.226;2022-09-04T07:15:38;22.90;57.90
7254;DHT22;4060;49.186;9.226;2022-09-04T07:21:18;22.80;57.90
7254;DHT22;4060;49.186;9.226;2022-09-04T07:23:53;22.80;58.00
7254;DHT22;4060;49.186;9.226;2022-09-04T07:26:36;22.80;58.20
7254;DHT22;4060;49.186;9.226;2022-09-04T07:29:29;22.90;58.40
7254;DHT22;4060;49.186;9.226;2022-09-04T07:32:06;22.90;58.50
7254;DHT22;4060;49.186;9.226;2022-09-04T07:34:42;22.90;58.70
7254;DHT22;4060;49.186;9.226;2022-09-04T07:37:25;22.90;58.80
7254;DHT22;4060;49.186;9.226;2022-09-04T07:40:05;22.90;59.00
7254;DHT22;4060;49.186;9.226;2022-09-04T07:42:44;22.90;59.00
7254;DHT22;4060;49.186;9.226;2022-09-04T07:45:25;22.90;59.20
7254;DHT22;4060;49.186;9.226;2022-09-04T07:48:17;23.00;59.40
7254;DHT22;4060;49.186;9.226;2022-09-04T07:50:56;23.00;59.50
7254;DHT22;4060;49.186;9.226;2022-09-04T07:53:46;23.00;59.70
7254;DHT22;4060;49.186;9.226;2022-09-04T07:56:28;23.00;60.00
7254;DHT22;4060;49.186;9.226;2022-09-04T07:59:28;23.10;60.50
7254;DHT22;4060;49.186;9.226;2022-09-04T08:02:20;23.10;60.90
7254;DHT22;4060;49.186;9.226;2022-09-04T08:05:15;23.20;61.20
7254;DHT22;4060;49.186;9.226;2022-09-04T08:08:13;23.20;61.40
7254;DHT22;4060;49.186;9.226;2022-09-04T08:11:01;23.30;61.70
7254;DHT22;4060;49.186;9.226;2022-09-04T08:13:53;23.30;61.70
7254;DHT22;4060;49.186;9.226;2022-09-04T08:16:32;23.40;61.90
7254;DHT22;4060;49.186;9.226;2022-09-04T08:19:20;23.40;61.80
7254;DHT22;4060;49.186;9.226;2022-09-04T08:21:56;23.50;62.00
7254;DHT22;4060;49.186;9.226;2022-09-04T08:24:59;23.50;61.80
7254;DHT22;4060;49.186;9.226;2022-09-04T08:27:50;23.60;62.20
7254;DHT22;4060;49.186;9.226;2022-09-04T08:30:23;23.60;61.90
7254;DHT22;4060;49.186;9.226;2022-09-04T08:33:28;23.70;62.00
7254;DHT22;4060;49.186;9.226;2022-09-04T08:36:08;23.70;62.20
7254;DHT22;4060;49.186;9.226;2022-09-04T08:39:02;23.70;61.90
7254;DHT22;4060;49.186;9.226;2022-09-04T08:42:18;23.80;62.10
7254;DHT22;4060;49.186;9.226;2022-09-04T08:51:52;23.90;61.90
7254;DHT22;4060;49.186;9.226;2022-09-04T08:54:46;23.90;61.80
7254;DHT22;4060;49.186;9.226;2022-09-04T09:00:29;24.00;61.90
7254;DHT22;4060;49.186;9.226;2022-09-04T09:03:39;24.00;61.70
7254;DHT22;4060;49.186;9.226;2022-09-04T09:09:43;24.10;62.00
7254;DHT22;4060;49.186;9.226;2022-09-04T09:15:48;24.10;62.00
7254;DHT22;4060;49.186;9.226;2022-09-04T09:18:35;24.10;62.00
7254;DHT22;4060;49.186;9.226;2022-09-04T09:21:08;24.20;62.10
7254;DHT22;4060;49.186;9.226;2022-09-04T09:23:47;24.20;61.90
7254;DHT22;4060;49.186;9.226;2022-09-04T09:26:28;24.20;61.80
7254;DHT22;4060;49.186;9.226;2022-09-04T09:29:18;24.30;61.90
7254;DHT22;4060;49.186;9.226;2022-09-04T09:32:18;24.30;61.90
7254;DHT22;4060;49.186;9.226;2022-09-04T09:41:44;24.40;62.00
7254;DHT22;4060;49.186;9.226;2022-09-04T09:51:02;24.50;61.90
7254;DHT22;4060;49.186;9.226;2022-09-04T09:53:58;24.50;61.90
7254;DHT22;4060;49.186;9.226;2022-09-04T09:57:03;24.50;61.90
7254;DHT22;4060;49.186;9.226;2022-09-04T10:00:04;24.60;61.90
7254;DHT22;4060;49.186;9.226;2022-09-04T10:09:22;24.70;61.70
7254;DHT22;4060;49.186;9.226;2022-09-04T10:12:17;24.60;61.50
7254;DHT22;4060;49.186;9.226;2022-09-04T10:24:35;24.80;61.30
7254;DHT22;4060;49.186;9.226;2022-09-04T10:27:45;24.80;61.10
7254;DHT22;4060;49.186;9.226;2022-09-04T10:30:19;24.90;61.20
7254;DHT22;4060;49.186;9.226;2022-09-04T10:36:18;24.90;60.90
7254;DHT22;4060;49.186;9.226;2022-09-04T10:39:02;24.90;60.50
7254;DHT22;4060;49.186;9.226;2022-09-04T10:42:06;24.90;60.50
7254;DHT22;4060;49.186;9.226;2022-09-04T10:45:00;25.00;60.50
7254;DHT22;4060;49.186;9.226;2022-09-04T10:54:03;25.10;59.90
7254;DHT22;4060;49.186;9.226;2022-09-04T10:56:44;25.10;59.80
7254;DHT22;4060;49.186;9.226;2022-09-04T10:59:34;25.10;59.70
7254;DHT22;4060;49.186;9.226;2022-09-04T11:02:32;25.20;59.60
7254;DHT22;4060;49.186;9.226;2022-09-04T11:05:24;25.20;59.30
7254;DHT22;4060;49.186;9.226;2022-09-04T11:08:18;25.30;59.10
7254;DHT22;4060;49.186;9.226;2022-09-04T11:11:15;25.30;59.00
7254;DHT22;4060;49.186;9.226;2022-09-04T11:17:09;25.40;58.80
7254;DHT22;4060;49.186;9.226;2022-09-04T11:20:14;25.40;58.60
7254;DHT22;4060;49.186;9.226;2022-09-04T11:29:31;25.40;58.20
7254;DHT22;4060;49.186;9.226;2022-09-04T11:32:23;25.50;58.10
7254;DHT22;4060;49.186;9.226;2022-09-04T11:38:16;25.50;57.60
7254;DHT22;4060;49.186;9.226;2022-09-04T11:41:20;25.60;57.60
7254;DHT22;4060;49.186;9.226;2022-09-04T11:44:26;25.60;57.30
7254;DHT22;4060;49.186;9.226;2022-09-04T11:50:30;25.60;57.10
7254;DHT22;4060;49.186;9.226;2022-09-04T11:53:24;25.70;57.00
7254;DHT22;4060;49.186;9.226;2022-09-04T11:56:22;25.70;56.70
7254;DHT22;4060;49.186;9.226;2022-09-04T11:59:21;25.70;56.70
7254;DHT22;4060;49.186;9.226;2022-09-04T12:05:14;25.80;56.40
7254;DHT22;4060;49.186;9.226;2022-09-04T12:08:02;25.80;56.30
7254;DHT22;4060;49.186;9.226;2022-09-04T12:10:52;25.90;56.60
7254;DHT22;4060;49.186;9.226;2022-09-04T12:13:46;25.90;55.90
7254;DHT22;4060;49.186;9.226;2022-09-04T12:16:44;26.00;55.60
7254;DHT22;4060;49.186;9.226;2022-09-04T12:19:46;26.00;55.40
7254;DHT22;4060;49.186;9.226;2022-09-04T12:32:23;26.20;55.00
7254;DHT22;4060;49.186;9.226;2022-09-04T12:35:16;26.20;54.80
7254;DHT22;4060;49.186;9.226;2022-09-04T12:41:06;26.30;54.50
7254;DHT22;4060;49.186;9.226;2022-09-04T12:43:52;26.30;54.30
7254;DHT22;4060;49.186;9.226;2022-09-04T12:46:42;26.40;54.30
7254;DHT22;4060;49.186;9.226;2022-09-04T12:49:39;26.40;54.10
7254;DHT22;4060;49.186;9.226;2022-09-04T12:52:24;26.40;53.70
7254;DHT22;4060;49.186;9.226;2022-09-04T12:55:00;26.50;53.60
7254;DHT22;4060;49.186;9.226;2022-09-04T12:57:43;26.50;54.00
7254;DHT22;4060;49.186;9.226;2022-09-04T13:00:16;26.50;53.30
7254;DHT22;4060;49.186;9.226;2022-09-04T13:02:57;26.60;53.20
7254;DHT22;4060;49.186;9.226;2022-09-04T13:05:39;26.60;53.00
7254;DHT22;4060;49.186;9.226;2022-09-04T13:08:19;26.60;52.70
7254;DHT22;4060;49.186;9.226;2022-09-04T13:11:04;26.70;52.60
7254;DHT22;4060;49.186;9.226;2022-09-04T13:13:45;26.70;52.50
7254;DHT22;4060;49.186;9.226;2022-09-04T13:16:25;26.70;52.30
7254;DHT22;4060;49.186;9.226;2022-09-04T13:19:07;26.70;52.30
7254;DHT22;4060;49.186;9.226;2022-09-04T13:22:01;26.80;52.10
7254;DHT22;4060;49.186;9.226;2022-09-04T13:24:42;26.80;51.90
7254;DHT22;4060;49.186;9.226;2022-09-04T13:27:35;26.80;51.80
7254;DHT22;4060;49.186;9.226;2022-09-04T13:30:13;26.80;51.60
7254;DHT22;4060;49.186;9.226;2022-09-04T13:32:59;26.90;51.30
7254;DHT22;4060;49.186;9.226;2022-09-04T13:39:02;27.00;50.90
7254;DHT22;4060;49.186;9.226;2022-09-04T13:42:13;27.00;50.70
7254;DHT22;4060;49.186;9.226;2022-09-04T13:45:01;27.00;50.50
7254;DHT22;4060;49.186;9.226;2022-09-04T13:47:44;27.10;49.60
7254;DHT22;4060;49.186;9.226;2022-09-04T13:50:19;27.10;49.20
7254;DHT22;4060;49.186;9.226;2022-09-04T13:52:53;27.20;49.10
7254;DHT22;4060;49.186;9.226;2022-09-04T13:55:25;27.20;48.90
7254;DHT22;4060;49.186;9.226;2022-09-04T13:58:00;27.20;48.80
7254;DHT22;4060;49.186;9.226;2022-09-04T14:00:41;27.30;48.90
7254;DHT22;4060;49.186;9.226;2022-09-04T14:03:29;27.30;48.80
7254;DHT22;4060;49.186;9.226;2022-09-04T14:06:01;27.30;48.70
7254;DHT22;4060;49.186;9.226;2022-09-04T14:08:33;27.40;48.80
7254;DHT22;4060;49.186;9.226;2022-09-04T14:11:29;27.40;48.60
7254;DHT22;4060;49.186;9.226;2022-09-04T14:14:32;27.40;48.50
7254;DHT22;4060;49.186;9.226;2022-09-04T14:17:09;27.50;48.50
7254;DHT22;4060;49.186;9.226;2022-09-04T14:19:48;27.40;48.40
7254;DHT22;4060;49.186;9.226;2022-09-04T14:22:31;27.50;48.20
7254;DHT22;4060;49.186;9.226;2022-09-04T14:25:10;27.50;48.10
7254;DHT22;4060;49.186;9.226;2022-09-04T14:27:52;27.60;48.10
7254;DHT22;4060;49.186;9.226;2022-09-04T14:30:24;27.60;48.10
7254;DHT22;4060;49.186;9.226;2022-09-04T14:33:04;27.60;48.00
7254;DHT22;4060;49.186;9.226;2022-09-04T14:35:45;27.60;47.70
7254;DHT22;4060;49.186;9.226;2022-09-04T14:41:23;27.70;47.40
7254;DHT22;4060;49.186;9.226;2022-09-04T14:44:10;27.70;47.30
7254;DHT22;4060;49.186;9.226;2022-09-04T14:46:48;27.70;47.20
7254;DHT22;4060;49.186;9.226;2022-09-04T14:49:24;27.80;47.20
7254;DHT22;4060;49.186;9.226;2022-09-04T14:52:07;27.80;47.20
7254;DHT22;4060;49.186;9.226;2022-09-04T14:54:40;27.80;47.10
7254;DHT22;4060;49.186;9.226;2022-09-04T14:57:18;27.80;47.10
7254;DHT22;4060;49.186;9.226;2022-09-04T15:00:01;27.80;46.90
7254;DHT22;4060;49.186;9.226;2022-09-04T15:02:36;27.90;46.90
7254;DHT22;4060;49.186;9.226;2022-09-04T15:05:14;27.90;46.90
7254;DHT22;4060;49.186;9.226;2022-09-04T15:07:58;27.90;46.90
7254;DHT22;4060;49.186;9.226;2022-09-04T15:10:34;27.90;46.80
7254;DHT22;4060;49.186;9.226;2022-09-04T15:16:28;28.00;46.60
7254;DHT22;4060;49.186;9.226;2022-09-04T15:19:26;28.00;46.50
7254;DHT22;4060;49.186;9.226;2022-09-04T15:22:05;28.00;46.50
7254;DHT22;4060;49.186;9.226;2022-09-04T15:24:51;28.00;46.30
7254;DHT22;4060;49.186;9.226;2022-09-04T15:27:29;28.00;46.30
7254;DHT22;4060;49.186;9.226;2022-09-04T15:30:06;28.10;46.50
7254;DHT22;4060;49.186;9.226;2022-09-04T15:32:41;28.10;46.50
7254;DHT22;4060;49.186;9.226;2022-09-04T15:35:20;28.10;46.50
7254;DHT22;4060;49.186;9.226;2022-09-04T15:38:04;28.10;46.50
7254;DHT22;4060;49.186;9.226;2022-09-04T15:40:41;28.10;46.50
7254;DHT22;4060;49.186;9.226;2022-09-04T15:43:20;28.10;46.40
7254;DHT22;4060;49.186;9.226;2022-09-04T15:45:58;28.10;46.30
7254;DHT22;4060;49.186;9.226;2022-09-04T15:48:42;28.10;46.30
7254;DHT22;4060;49.186;9.226;2022-09-04T15:51:25;28.20;46.20
7254;DHT22;4060;49.186;9.226;2022-09-04T15:54:25;28.20;46.10
7254;DHT22;4060;49.186;9.226;2022-09-04T15:57:02;28.20;45.90
7254;DHT22;4060;49.186;9.226;2022-09-04T15:59:45;28.20;46.00
7254;DHT22;4060;49.186;9.226;2022-09-04T16:02:32;28.20;46.00
7254;DHT22;4060;49.186;9.226;2022-09-04T16:05:14;28.20;46.00
7254;DHT22;4060;49.186;9.226;2022-09-04T16:07:47;28.20;46.00
7254;DHT22;4060;49.186;9.226;2022-09-04T16:10:21;28.20;45.90
7254;DHT22;4060;49.186;9.226;2022-09-04T16:12:58;28.20;45.80
7254;DHT22;4060;49.186;9.226;2022-09-04T16:15:32;28.20;45.80
7254;DHT22;4060;49.186;9.226;2022-09-04T16:18:12;28.30;45.90
7254;DHT22;4060;49.186;9.226;2022-09-04T16:20:48;28.20;45.80
7254;DHT22;4060;49.186;9.226;2022-09-04T16:23:27;28.20;45.80
7254;DHT22;4060;49.186;9.226;2022-09-04T16:25:58;28.20;45.80
7254;DHT22;4060;49.186;9.226;2022-09-04T16:28:43;28.20;45.80
7254;DHT22;4060;49.186;9.226;2022-09-04T16:31:24;28.20;45.80
7254;DHT22;4060;49.186;9.226;2022-09-04T16:34:04;28.30;45.80
7254;DHT22;4060;49.186;9.226;2022-09-04T16:36:39;28.20;45.70
7254;DHT22;4060;49.186;9.226;2022-09-04T16:39:21;28.20;45.60
7254;DHT22;4060;49.186;9.226;2022-09-04T16:41:57;28.30;45.70
7254;DHT22;4060;49.186;9.226;2022-09-04T16:44:37;28.20;45.70
7254;DHT22;4060;49.186;9.226;2022-09-04T16:47:17;28.20;45.70
7254;DHT22;4060;49.186;9.226;2022-09-04T16:49:54;28.30;45.70
7254;DHT22;4060;49.186;9.226;2022-09-04T16:52:43;28.30;45.70
7254;DHT22;4060;49.186;9.226;2022-09-04T16:55:16;28.20;45.50
7254;DHT22;4060;49.186;9.226;2022-09-04T16:58:03;28.30;45.50
7254;DHT22;4060;49.186;9.226;2022-09-04T17:00:53;28.20;45.50
7254;DHT22;4060;49.186;9.226;2022-09-04T17:03:46;28.30;45.50
7254;DHT22;4060;49.186;9.226;2022-09-04T17:06:24;28.20;45.50
7254;DHT22;4060;49.186;9.226;2022-09-04T17:09:05;28.20;45.50
7254;DHT22;4060;49.186;9.226;2022-09-04T17:11:41;28.20;45.40
7254;DHT22;4060;49.186;9.226;2022-09-04T17:14:17;28.20;45.40
7254;DHT22;4060;49.186;9.226;2022-09-04T17:16:55;28.20;45.40
7254;DHT22;4060;49.186;9.226;2022-09-04T17:19:26;28.20;45.40
7254;DHT22;4060;49.186;9.226;2022-09-04T17:22:16;28.20;45.40
7254;DHT22;4060;49.186;9.226;2022-09-04T17:25:14;28.20;45.40
7254;DHT22;4060;49.186;9.226;2022-09-04T17:27:50;28.20;45.50
7254;DHT22;4060;49.186;9.226;2022-09-04T17:30:31;28.20;45.50
7254;DHT22;4060;49.186;9.226;2022-09-04T17:33:09;28.20;45.50
7254;DHT22;4060;49.186;9.226;2022-09-04T17:35:50;28.20;45.50
7254;DHT22;4060;49.186;9.226;2022-09-04T17:38:30;28.10;45.40
7254;DHT22;4060;49.186;9.226;2022-09-04T17:41:12;28.20;45.40
7254;DHT22;4060;49.186;9.226;2022-09-04T17:47:01;28.10;44.70
7254;DHT22;4060;49.186;9.226;2022-09-04T17:49:41;28.10;44.80
7254;DHT22;4060;49.186;9.226;2022-09-04T17:52:22;28.00;44.60
7254;DHT22;4060;49.186;9.226;2022-09-04T17:54:55;28.00;44.70
7254;DHT22;4060;49.186;9.226;2022-09-04T17:57:41;28.00;44.80
7254;DHT22;4060;49.186;9.226;2022-09-04T18:00:18;28.00;44.90
7254;DHT22;4060;49.186;9.226;2022-09-04T18:02:55;28.00;45.00
7254;DHT22;4060;49.186;9.226;2022-09-04T18:05:32;27.90;45.00
7254;DHT22;4060;49.186;9.226;2022-09-04T18:08:07;27.90;45.00
7254;DHT22;4060;49.186;9.226;2022-09-04T18:10:51;27.90;45.10
7254;DHT22;4060;49.186;9.226;2022-09-04T18:13:31;27.80;45.10
7254;DHT22;4060;49.186;9.226;2022-09-04T18:16:17;27.80;45.10
7254;DHT22;4060;49.186;9.226;2022-09-04T18:18:54;27.80;45.10
7254;DHT22;4060;49.186;9.226;2022-09-04T18:21:34;27.80;45.20
7254;DHT22;4060;49.186;9.226;2022-09-04T18:24:14;27.80;45.20
7254;DHT22;4060;49.186;9.226;2022-09-04T18:26:46;27.80;45.20
7254;DHT22;4060;49.186;9.226;2022-09-04T18:29:52;27.70;45.30
7254;DHT22;4060;49.186;9.226;2022-09-04T18:32:37;27.70;45.20
7254;DHT22;4060;49.186;9.226;2022-09-04T18:35:13;27.70;45.30
7254;DHT22;4060;49.186;9.226;2022-09-04T18:37:52;27.70;45.30
7254;DHT22;4060;49.186;9.226;2022-09-04T18:40:24;27.70;45.30
7254;DHT22;4060;49.186;9.226;2022-09-04T18:43:05;27.70;44.80
7254;DHT22;4060;49.186;9.226;2022-09-04T18:45:41;27.60;44.30
7254;DHT22;4060;49.186;9.226;2022-09-04T18:48:18;27.40;44.00
7254;DHT22;4060;49.186;9.226;2022-09-04T18:50:54;27.30;44.10
7254;DHT22;4060;49.186;9.226;2022-09-04T18:53:34;27.30;44.30
7254;DHT22;4060;49.186;9.226;2022-09-04T18:56:14;27.30;44.40
7254;DHT22;4060;49.186;9.226;2022-09-04T18:58:52;27.20;44.50
7254;DHT22;4060;49.186;9.226;2022-09-04T19:01:30;27.10;44.50
7254;DHT22;4060;49.186;9.226;2022-09-04T19:07:08;27.00;44.90
7254;DHT22;4060;49.186;9.226;2022-09-04T19:09:53;27.10;45.10
7254;DHT22;4060;49.186;9.226;2022-09-04T19:12:26;27.20;45.20
7254;DHT22;4060;49.186;9.226;2022-09-04T19:15:02;27.40;45.10
7254;DHT22;4060;49.186;9.226;2022-09-04T19:17:36;27.60;45.00
7254;DHT22;4060;49.186;9.226;2022-09-04T19:20:10;27.80;44.80
7254;DHT22;4060;49.186;9.226;2022-09-04T19:22:44;28.00;44.60
7254;DHT22;4060;49.186;9.226;2022-09-04T19:25:25;28.20;44.30
7254;DHT22;4060;49.186;9.226;2022-09-04T19:28:00;28.40;44.10
7254;DHT22;4060;49.186;9.226;2022-09-04T19:30:34;28.50;43.80
7254;DHT22;4060;49.186;9.226;2022-09-04T19:33:19;28.70;43.70
7254;DHT22;4060;49.186;9.226;2022-09-04T19:35:56;28.80;43.50
7254;DHT22;4060;49.186;9.226;2022-09-04T19:38:38;28.90;43.40
7254;DHT22;4060;49.186;9.226;2022-09-04T19:41:19;29.00;43.30
7254;DHT22;4060;49.186;9.226;2022-09-04T19:43:52;29.00;43.10
7254;DHT22;4060;49.186;9.226;2022-09-04T19:46:33;29.10;43.00
7254;DHT22;4060;49.186;9.226;2022-09-04T19:49:17;29.20;43.00
7254;DHT22;4060;49.186;9.226;2022-09-04T19:51:58;29.20;43.00
7254;DHT22;4060;49.186;9.226;2022-09-04T19:54:35;29.20;42.80
7254;DHT22;4060;49.186;9.226;2022-09-04T19:57:17;29.20;42.80
7254;DHT22;4060;49.186;9.226;2022-09-04T19:59:52;29.30;42.70
7254;DHT22;4060;49.186;9.226;2022-09-04T20:02:32;29.30;42.70
7254;DHT22;4060;49.186;9.226;2022-09-04T20:05:08;29.30;42.60
7254;DHT22;4060;49.186;9.226;2022-09-04T20:07:49;29.30;42.60
7254;DHT22;4060;49.186;9.226;2022-09-04T20:10:26;29.30;42.50